METAR AND TAF INFORMATION
METAR FOR WSSS
ADDS - METARS form results

(2307 UTC 19 September 2019)
Data provider http://aviationweather.gov/metar/data/
 
METAR text: WSSS 192300Z 14009KT 9999 FEW017 FEW018TCU BKN300 28/24 Q1011 NOSIG
Conditions at: WSSS (SINGAPORE/CHANGI, SG) observed 2300 UTC 19 September 2019
Temperature: 28.0°C (82°F)
Dewpoint: 24.0°C (75°F) [RH = 79%]
Pressure (altimeter): 29.85 inches Hg (1011.0 mb)
Winds: from the SE (140 degrees) at 10 MPH (9 knots; 4.6 m/s)
Visibility: 6 or more miles (10+ km)
Ceiling: 30000 feet AGL
Clouds: few clouds at 1700 feet AGL
few clouds at 1800 feet AGL
broken clouds at 30000 feet AGL
Weather: no significant weather observed at this time

METAR text: WSSS 192230Z 14008KT 100V160 9999 FEW017 BKN300 28/24 Q1011 NOSIG
Conditions at: WSSS (SINGAPORE/CHANGI, SG) observed 2230 UTC 19 September 2019
Temperature: 28.0°C (82°F)
Dewpoint: 24.0°C (75°F) [RH = 79%]
Pressure (altimeter): 29.85 inches Hg (1011.0 mb)
Winds: from the SE (140 degrees) at 9 MPH (8 knots; 4.1 m/s)
Visibility: 6 or more miles (10+ km)
Ceiling: 30000 feet AGL
Clouds: few clouds at 1700 feet AGL
broken clouds at 30000 feet AGL
Weather: no significant weather observed at this time

Forecast for: WSSS (SINGAPORE/CHANGI, SG)
Text: TAF WSSS 192300Z 2000/2106 14010KT 7000 FEW015 SCT020
Forecast period: 0000 UTC 20 September 2019 to 0600 UTC 21 September 2019
Forecast type: FROM: standard forecast or significant change
Winds: from the SE (140 degrees) at 12 MPH (10 knots; 5.1 m/s)
Visibility: 4 miles (7 km)
Ceiling: at least 12,000 feet AGL
Clouds: few clouds at 1500 feet AGL
scattered clouds at 2000 feet AGL
Weather: no significant weather forecast for this period

 AIRPORT MAP

 RUNWAY INFORMATION
Runway 02C Runway length 13123 ft Runway width 197 ft
Runway elevation 15 ft Runway displaced threshold 0 ft Runway heading 23
Runway 20C Runway length 13123 ft Runway width 197 ft
Runway elevation 15 ft Runway displaced threshold 0 ft Runway heading 203
Runway 02L Runway length 13123 ft Runway width 197 ft
Runway elevation 22 ft Runway displaced threshold 0 ft Runway heading 23
Runway 20R Runway length 13123 ft Runway width 197 ft
Runway elevation 14 ft Runway displaced threshold 2429 ft Runway heading 203
Runway 02R Runway length 9015 ft Runway width 195 ft
Runway elevation 0 ft Runway displaced threshold 0 ft Runway heading 23
Runway 20L Runway length 9015 ft Runway width 195 ft
Runway elevation 0 ft Runway displaced threshold 0 ft Runway heading 203

 AIRPORT FREQUENCIES
Type A/D Name APP/DEP Frequency 120.3 MHZ
Type ARR Name ARR Frequency 119.3 MHZ
Type ATIS Name ATIS Frequency 128.6 MHZ
Type CLD Name CLNC DEL Frequency 121.65 MHZ
Type GND Name GND Frequency 124.3 MHZ
Type TWR Name TWR Frequency 118.6 MHZ

 AIRPORT NEAR NAVIGATION AIDS
Type NDB Name Bedok Frequency 232 KHZ
Type VOR-DME Name Tekong Frequency 116500 KHZ